sensor_id;sensor_type;location;lat;lon;timestamp;temperature;humidity
33673;DHT22;20011;51.510;9.942;2024-01-25T00:01:52;9.70;99.90
33673;DHT22;20011;51.510;9.942;2024-01-25T00:04:19;9.70;99.90
33673;DHT22;20011;51.510;9.942;2024-01-25T00:06:46;9.80;99.90
33673;DHT22;20011;51.510;9.942;2024-01-25T00:09:13;9.80;99.90
33673;DHT22;20011;51.510;9.942;2024-01-25T00:11:40;9.70;99.90
33673;DHT22;20011;51.510;9.942;2024-01-25T00:14:07;9.80;99.90
33673;DHT22;20011;51.510;9.942;2024-01-25T00:16:34;9.80;99.90
33673;DHT22;20011;51.510;9.942;2024-01-25T00:19:01;9.70;99.90
33673;DHT22;20011;51.510;9.942;2024-01-25T00:21:28;9.80;99.90
33673;DHT22;20011;51.510;9.942;2024-01-25T00:23:55;9.70;99.90
33673;DHT22;20011;51.510;9.942;2024-01-25T00:26:22;9.80;99.90
33673;DHT22;20011;51.510;9.942;2024-01-25T00:28:49;9.70;99.90
33673;DHT22;20011;51.510;9.942;2024-01-25T00:31:16;9.70;99.90
33673;DHT22;20011;51.510;9.942;2024-01-25T00:33:43;9.80;99.90
33673;DHT22;20011;51.510;9.942;2024-01-25T00:36:11;9.70;99.90
33673;DHT22;20011;51.510;9.942;2024-01-25T00:38:38;9.80;99.90
33673;DHT22;20011;51.510;9.942;2024-01-25T00:41:08;9.70;99.90
33673;DHT22;20011;51.510;9.942;2024-01-25T00:43:37;9.80;99.90
33673;DHT22;20011;51.510;9.942;2024-01-25T00:46:04;9.80;99.90
33673;DHT22;20011;51.510;9.942;2024-01-25T00:48:31;9.70;99.90
33673;DHT22;20011;51.510;9.942;2024-01-25T00:50:58;9.70;99.90
33673;DHT22;20011;51.510;9.942;2024-01-25T00:53:25;9.70;99.90
33673;DHT22;20011;51.510;9.942;2024-01-25T00:55:53;9.70;99.90
33673;DHT22;20011;51.510;9.942;2024-01-25T00:58:20;9.70;99.90
33673;DHT22;20011;51.510;9.942;2024-01-25T01:00:47;9.80;99.90
33673;DHT22;20011;51.510;9.942;2024-01-25T01:03:15;9.70;99.90
33673;DHT22;20011;51.510;9.942;2024-01-25T01:05:44;9.80;99.90
33673;DHT22;20011;51.510;9.942;2024-01-25T01:08:12;9.70;99.90
33673;DHT22;20011;51.510;9.942;2024-01-25T01:10:39;9.80;99.90
33673;DHT22;20011;51.510;9.942;2024-01-25T01:13:06;9.70;99.90
33673;DHT22;20011;51.510;9.942;2024-01-25T01:15:32;9.70;99.90
33673;DHT22;20011;51.510;9.942;2024-01-25T01:17:59;9.70;99.90
33673;DHT22;20011;51.510;9.942;2024-01-25T01:20:27;9.70;99.90
33673;DHT22;20011;51.510;9.942;2024-01-25T01:22:54;9.80;99.90
33673;DHT22;20011;51.510;9.942;2024-01-25T01:25:21;9.80;99.90
33673;DHT22;20011;51.510;9.942;2024-01-25T01:27:48;9.70;99.90
33673;DHT22;20011;51.510;9.942;2024-01-25T01:30:16;9.70;99.90
33673;DHT22;20011;51.510;9.942;2024-01-25T01:32:43;9.60;99.90
33673;DHT22;20011;51.510;9.942;2024-01-25T01:35:10;9.60;99.90
33673;DHT22;20011;51.510;9.942;2024-01-25T01:37:38;9.60;99.90
33673;DHT22;20011;51.510;9.942;2024-01-25T01:40:05;9.60;99.90
33673;DHT22;20011;51.510;9.942;2024-01-25T01:42:33;9.70;99.90
33673;DHT22;20011;51.510;9.942;2024-01-25T01:45:00;9.60;99.90
33673;DHT22;20011;51.510;9.942;2024-01-25T01:47:27;9.70;99.90
33673;DHT22;20011;51.510;9.942;2024-01-25T01:49:55;9.60;99.90
33673;DHT22;20011;51.510;9.942;2024-01-25T01:52:22;9.60;99.90
33673;DHT22;20011;51.510;9.942;2024-01-25T01:54:49;9.70;99.90
33673;DHT22;20011;51.510;9.942;2024-01-25T01:57:17;9.60;99.90
33673;DHT22;20011;51.510;9.942;2024-01-25T01:59:44;9.60;99.90
33673;DHT22;20011;51.510;9.942;2024-01-25T02:02:11;9.60;99.90
33673;DHT22;20011;51.510;9.942;2024-01-25T02:04:38;9.60;99.90
33673;DHT22;20011;51.510;9.942;2024-01-25T02:07:05;9.60;99.90
33673;DHT22;20011;51.510;9.942;2024-01-25T02:09:34;9.50;99.90
33673;DHT22;20011;51.510;9.942;2024-01-25T02:12:02;9.50;99.90
33673;DHT22;20011;51.510;9.942;2024-01-25T02:14:31;9.50;99.90
33673;DHT22;20011;51.510;9.942;2024-01-25T02:16:58;9.60;99.90
33673;DHT22;20011;51.510;9.942;2024-01-25T02:19:24;9.50;99.90
33673;DHT22;20011;51.510;9.942;2024-01-25T02:21:54;9.50;99.90
33673;DHT22;20011;51.510;9.942;2024-01-25T02:24:24;9.50;99.90
33673;DHT22;20011;51.510;9.942;2024-01-25T02:26:51;9.50;99.90
33673;DHT22;20011;51.510;9.942;2024-01-25T02:29:18;9.50;99.90
33673;DHT22;20011;51.510;9.942;2024-01-25T02:31:46;9.50;99.90
33673;DHT22;20011;51.510;9.942;2024-01-25T02:34:13;9.50;99.90
33673;DHT22;20011;51.510;9.942;2024-01-25T02:36:40;9.50;99.90
33673;DHT22;20011;51.510;9.942;2024-01-25T02:39:07;9.40;99.90
33673;DHT22;20011;51.510;9.942;2024-01-25T02:41:34;9.50;99.90
33673;DHT22;20011;51.510;9.942;2024-01-25T02:44:01;9.40;99.90
33673;DHT22;20011;51.510;9.942;2024-01-25T02:46:28;9.50;99.90
33673;DHT22;20011;51.510;9.942;2024-01-25T02:48:55;9.50;99.90
33673;DHT22;20011;51.510;9.942;2024-01-25T02:51:22;9.50;99.90
33673;DHT22;20011;51.510;9.942;2024-01-25T02:53:49;9.50;99.90
33673;DHT22;20011;51.510;9.942;2024-01-25T02:56:16;9.50;99.90
33673;DHT22;20011;51.510;9.942;2024-01-25T02:58:43;9.50;99.90
33673;DHT22;20011;51.510;9.942;2024-01-25T03:01:10;9.50;99.90
33673;DHT22;20011;51.510;9.942;2024-01-25T03:03:37;9.50;99.90
33673;DHT22;20011;51.510;9.942;2024-01-25T03:06:06;9.40;99.90
33673;DHT22;20011;51.510;9.942;2024-01-25T03:08:33;9.40;99.90
33673;DHT22;20011;51.510;9.942;2024-01-25T03:11:00;9.40;99.90
33673;DHT22;20011;51.510;9.942;2024-01-25T03:13:30;9.30;99.90
33673;DHT22;20011;51.510;9.942;2024-01-25T03:15:57;9.30;99.90
33673;DHT22;20011;51.510;9.942;2024-01-25T03:18:25;9.30;99.90
33673;DHT22;20011;51.510;9.942;2024-01-25T03:20:52;9.40;99.90
33673;DHT22;20011;51.510;9.942;2024-01-25T03:23:18;9.30;99.90
33673;DHT22;20011;51.510;9.942;2024-01-25T03:25:45;9.30;99.90
33673;DHT22;20011;51.510;9.942;2024-01-25T03:28:12;9.20;99.90
33673;DHT22;20011;51.510;9.942;2024-01-25T03:30:42;9.20;99.90
33673;DHT22;20011;51.510;9.942;2024-01-25T03:33:09;9.20;99.90
33673;DHT22;20011;51.510;9.942;2024-01-25T03:35:36;9.10;99.90
33673;DHT22;20011;51.510;9.942;2024-01-25T03:38:03;9.10;99.90
33673;DHT22;20011;51.510;9.942;2024-01-25T03:40:30;9.10;99.90
33673;DHT22;20011;51.510;9.942;2024-01-25T03:42:57;9.10;99.90
33673;DHT22;20011;51.510;9.942;2024-01-25T03:45:45;9.20;99.90
33673;DHT22;20011;51.510;9.942;2024-01-25T03:48:12;9.10;99.90
33673;DHT22;20011;51.510;9.942;2024-01-25T03:50:39;9.20;99.90
33673;DHT22;20011;51.510;9.942;2024-01-25T03:53:06;9.20;99.90
33673;DHT22;20011;51.510;9.942;2024-01-25T03:55:33;9.10;99.90
33673;DHT22;20011;51.510;9.942;2024-01-25T03:58:01;9.10;99.90
33673;DHT22;20011;51.510;9.942;2024-01-25T04:00:28;9.10;99.90
33673;DHT22;20011;51.510;9.942;2024-01-25T04:02:55;9.20;99.90
33673;DHT22;20011;51.510;9.942;2024-01-25T04:05:22;9.20;99.90
33673;DHT22;20011;51.510;9.942;2024-01-25T04:07:49;9.20;99.90
33673;DHT22;20011;51.510;9.942;2024-01-25T04:10:16;9.20;99.90
33673;DHT22;20011;51.510;9.942;2024-01-25T04:12:43;9.20;99.90
33673;DHT22;20011;51.510;9.942;2024-01-25T04:15:10;9.20;99.90
33673;DHT22;20011;51.510;9.942;2024-01-25T04:17:37;9.20;99.90
33673;DHT22;20011;51.510;9.942;2024-01-25T04:20:05;9.20;99.90
33673;DHT22;20011;51.510;9.942;2024-01-25T04:22:32;9.20;99.90
33673;DHT22;20011;51.510;9.942;2024-01-25T04:24:59;9.10;99.90
33673;DHT22;20011;51.510;9.942;2024-01-25T04:27:27;9.20;99.90
33673;DHT22;20011;51.510;9.942;2024-01-25T04:29:54;9.10;99.90
33673;DHT22;20011;51.510;9.942;2024-01-25T04:32:21;9.10;99.90
33673;DHT22;20011;51.510;9.942;2024-01-25T04:34:48;9.20;99.90
33673;DHT22;20011;51.510;9.942;2024-01-25T04:37:15;9.10;99.90
33673;DHT22;20011;51.510;9.942;2024-01-25T04:39:42;9.20;99.90
33673;DHT22;20011;51.510;9.942;2024-01-25T04:42:10;9.10;99.90
33673;DHT22;20011;51.510;9.942;2024-01-25T04:44:37;9.10;99.90
33673;DHT22;20011;51.510;9.942;2024-01-25T04:47:04;9.00;99.90
33673;DHT22;20011;51.510;9.942;2024-01-25T04:49:31;9.00;99.90
33673;DHT22;20011;51.510;9.942;2024-01-25T04:51:58;9.00;99.90
33673;DHT22;20011;51.510;9.942;2024-01-25T04:54:25;9.00;99.90
33673;DHT22;20011;51.510;9.942;2024-01-25T04:56:53;8.90;99.90
33673;DHT22;20011;51.510;9.942;2024-01-25T04:59:20;9.00;99.90
33673;DHT22;20011;51.510;9.942;2024-01-25T05:01:47;9.00;99.90
33673;DHT22;20011;51.510;9.942;2024-01-25T05:04:15;9.00;99.90
33673;DHT22;20011;51.510;9.942;2024-01-25T05:06:43;9.00;99.90
33673;DHT22;20011;51.510;9.942;2024-01-25T05:09:10;9.00;99.90
33673;DHT22;20011;51.510;9.942;2024-01-25T05:11:39;9.00;99.90
33673;DHT22;20011;51.510;9.942;2024-01-25T05:14:06;8.90;99.90
33673;DHT22;20011;51.510;9.942;2024-01-25T05:16:34;8.90;99.90
33673;DHT22;20011;51.510;9.942;2024-01-25T05:19:02;8.90;99.90
33673;DHT22;20011;51.510;9.942;2024-01-25T05:21:29;8.90;99.90
33673;DHT22;20011;51.510;9.942;2024-01-25T05:23:56;8.80;99.90
33673;DHT22;20011;51.510;9.942;2024-01-25T05:26:24;8.90;99.90
33673;DHT22;20011;51.510;9.942;2024-01-25T05:28:51;8.90;99.90
33673;DHT22;20011;51.510;9.942;2024-01-25T05:31:18;8.80;99.90
33673;DHT22;20011;51.510;9.942;2024-01-25T05:33:45;8.90;99.90
33673;DHT22;20011;51.510;9.942;2024-01-25T05:36:12;8.80;99.90
33673;DHT22;20011;51.510;9.942;2024-01-25T05:38:40;8.90;99.90
33673;DHT22;20011;51.510;9.942;2024-01-25T05:41:07;8.80;99.90
33673;DHT22;20011;51.510;9.942;2024-01-25T05:43:34;8.80;99.90
33673;DHT22;20011;51.510;9.942;2024-01-25T05:46:01;8.80;99.90
33673;DHT22;20011;51.510;9.942;2024-01-25T05:48:31;8.90;99.90
33673;DHT22;20011;51.510;9.942;2024-01-25T05:50:58;8.80;99.90
33673;DHT22;20011;51.510;9.942;2024-01-25T05:53:25;8.80;99.90
33673;DHT22;20011;51.510;9.942;2024-01-25T05:55:52;8.80;99.90
33673;DHT22;20011;51.510;9.942;2024-01-25T05:58:19;8.90;99.90
33673;DHT22;20011;51.510;9.942;2024-01-25T06:00:47;8.90;99.90
33673;DHT22;20011;51.510;9.942;2024-01-25T06:03:14;8.90;99.90
33673;DHT22;20011;51.510;9.942;2024-01-25T06:05:41;8.80;99.90
33673;DHT22;20011;51.510;9.942;2024-01-25T06:08:09;8.90;99.90
33673;DHT22;20011;51.510;9.942;2024-01-25T06:10:36;8.80;99.90
33673;DHT22;20011;51.510;9.942;2024-01-25T06:13:03;8.70;99.90
33673;DHT22;20011;51.510;9.942;2024-01-25T06:15:31;8.70;99.90
33673;DHT22;20011;51.510;9.942;2024-01-25T06:17:58;8.80;99.90
33673;DHT22;20011;51.510;9.942;2024-01-25T06:20:25;8.70;99.90
33673;DHT22;20011;51.510;9.942;2024-01-25T06:22:53;8.80;99.90
33673;DHT22;20011;51.510;9.942;2024-01-25T06:25:21;8.70;99.90
33673;DHT22;20011;51.510;9.942;2024-01-25T06:27:49;8.80;99.90
33673;DHT22;20011;51.510;9.942;2024-01-25T06:30:16;8.70;99.90
33673;DHT22;20011;51.510;9.942;2024-01-25T06:32:43;8.80;99.90
33673;DHT22;20011;51.510;9.942;2024-01-25T06:35:10;8.80;99.90
33673;DHT22;20011;51.510;9.942;2024-01-25T06:37:38;8.80;99.90
33673;DHT22;20011;51.510;9.942;2024-01-25T06:40:05;8.80;99.90
33673;DHT22;20011;51.510;9.942;2024-01-25T06:42:33;8.80;99.90
33673;DHT22;20011;51.510;9.942;2024-01-25T06:45:00;8.80;99.90
33673;DHT22;20011;51.510;9.942;2024-01-25T06:47:27;8.80;99.90
33673;DHT22;20011;51.510;9.942;2024-01-25T06:49:54;8.80;99.90
33673;DHT22;20011;51.510;9.942;2024-01-25T06:52:21;8.80;99.90
33673;DHT22;20011;51.510;9.942;2024-01-25T06:54:48;8.80;99.90
33673;DHT22;20011;51.510;9.942;2024-01-25T06:57:16;8.80;99.90
33673;DHT22;20011;51.510;9.942;2024-01-25T06:59:43;8.80;99.90
33673;DHT22;20011;51.510;9.942;2024-01-25T07:02:11;8.80;99.90
33673;DHT22;20011;51.510;9.942;2024-01-25T07:04:39;8.80;99.90
33673;DHT22;20011;51.510;9.942;2024-01-25T07:07:09;8.70;99.90
33673;DHT22;20011;51.510;9.942;2024-01-25T07:09:36;8.80;99.90
33673;DHT22;20011;51.510;9.942;2024-01-25T07:12:03;8.70;99.90
33673;DHT22;20011;51.510;9.942;2024-01-25T07:14:30;8.80;99.90
33673;DHT22;20011;51.510;9.942;2024-01-25T07:16:58;8.80;99.90
33673;DHT22;20011;51.510;9.942;2024-01-25T07:19:25;8.80;99.90
33673;DHT22;20011;51.510;9.942;2024-01-25T07:21:52;8.70;99.90
33673;DHT22;20011;51.510;9.942;2024-01-25T07:24:19;8.80;99.90
33673;DHT22;20011;51.510;9.942;2024-01-25T07:26:46;8.80;99.90
33673;DHT22;20011;51.510;9.942;2024-01-25T07:29:13;8.80;99.90
33673;DHT22;20011;51.510;9.942;2024-01-25T07:31:40;8.80;99.90
33673;DHT22;20011;51.510;9.942;2024-01-25T07:34:07;8.80;99.90
33673;DHT22;20011;51.510;9.942;2024-01-25T07:36:34;8.80;99.90
33673;DHT22;20011;51.510;9.942;2024-01-25T07:39:01;8.80;99.90
33673;DHT22;20011;51.510;9.942;2024-01-25T07:41:29;8.80;99.90
33673;DHT22;20011;51.510;9.942;2024-01-25T07:43:56;8.80;99.90
33673;DHT22;20011;51.510;9.942;2024-01-25T07:46:23;8.80;99.90
33673;DHT22;20011;51.510;9.942;2024-01-25T07:48:53;8.80;99.90
33673;DHT22;20011;51.510;9.942;2024-01-25T07:51:20;8.80;99.90
33673;DHT22;20011;51.510;9.942;2024-01-25T07:53:47;8.80;99.90
33673;DHT22;20011;51.510;9.942;2024-01-25T07:56:14;8.70;99.90
33673;DHT22;20011;51.510;9.942;2024-01-25T07:58:41;8.80;99.90
33673;DHT22;20011;51.510;9.942;2024-01-25T08:01:08;8.80;99.90
33673;DHT22;20011;51.510;9.942;2024-01-25T08:03:36;8.80;99.90
33673;DHT22;20011;51.510;9.942;2024-01-25T08:06:04;8.80;99.90
33673;DHT22;20011;51.510;9.942;2024-01-25T08:08:31;8.70;99.90
33673;DHT22;20011;51.510;9.942;2024-01-25T08:10:58;8.80;99.90
33673;DHT22;20011;51.510;9.942;2024-01-25T08:13:26;8.70;99.90
33673;DHT22;20011;51.510;9.942;2024-01-25T08:16:01;8.70;99.90
33673;DHT22;20011;51.510;9.942;2024-01-25T08:18:28;8.70;99.90
33673;DHT22;20011;51.510;9.942;2024-01-25T08:20:57;8.70;99.90
33673;DHT22;20011;51.510;9.942;2024-01-25T08:23:24;8.70;99.90
33673;DHT22;20011;51.510;9.942;2024-01-25T08:25:51;8.70;99.90
33673;DHT22;20011;51.510;9.942;2024-01-25T08:28:18;8.70;99.90
33673;DHT22;20011;51.510;9.942;2024-01-25T08:30:46;8.70;99.90
33673;DHT22;20011;51.510;9.942;2024-01-25T08:33:15;8.70;99.90
33673;DHT22;20011;51.510;9.942;2024-01-25T08:35:42;8.70;99.90
33673;DHT22;20011;51.510;9.942;2024-01-25T08:38:09;8.70;99.90
33673;DHT22;20011;51.510;9.942;2024-01-25T08:40:36;8.70;99.90
33673;DHT22;20011;51.510;9.942;2024-01-25T08:43:03;8.70;99.90
33673;DHT22;20011;51.510;9.942;2024-01-25T08:45:32;8.80;99.90
33673;DHT22;20011;51.510;9.942;2024-01-25T08:47:59;8.80;99.90
33673;DHT22;20011;51.510;9.942;2024-01-25T08:50:27;8.80;99.90
33673;DHT22;20011;51.510;9.942;2024-01-25T08:52:54;8.80;99.90
33673;DHT22;20011;51.510;9.942;2024-01-25T08:55:22;8.90;99.90
33673;DHT22;20011;51.510;9.942;2024-01-25T08:57:50;8.90;99.90
33673;DHT22;20011;51.510;9.942;2024-01-25T09:00:17;8.80;99.90
33673;DHT22;20011;51.510;9.942;2024-01-25T09:02:46;8.90;99.90
33673;DHT22;20011;51.510;9.942;2024-01-25T09:05:13;8.80;99.90
33673;DHT22;20011;51.510;9.942;2024-01-25T09:07:41;8.80;99.90
33673;DHT22;20011;51.510;9.942;2024-01-25T09:10:09;8.90;99.90
33673;DHT22;20011;51.510;9.942;2024-01-25T09:12:37;8.80;99.90
33673;DHT22;20011;51.510;9.942;2024-01-25T09:15:06;8.90;99.90
33673;DHT22;20011;51.510;9.942;2024-01-25T09:17:36;8.80;99.90
33673;DHT22;20011;51.510;9.942;2024-01-25T09:20:04;8.80;99.90
33673;DHT22;20011;51.510;9.942;2024-01-25T09:22:32;8.90;99.90
33673;DHT22;20011;51.510;9.942;2024-01-25T09:24:59;8.90;99.90
33673;DHT22;20011;51.510;9.942;2024-01-25T09:27:26;8.80;99.90
33673;DHT22;20011;51.510;9.942;2024-01-25T09:29:53;8.90;99.90
33673;DHT22;20011;51.510;9.942;2024-01-25T09:32:20;8.90;99.90
33673;DHT22;20011;51.510;9.942;2024-01-25T09:34:47;8.80;99.90
33673;DHT22;20011;51.510;9.942;2024-01-25T09:37:15;8.80;99.90
33673;DHT22;20011;51.510;9.942;2024-01-25T09:39:44;8.80;99.90
33673;DHT22;20011;51.510;9.942;2024-01-25T09:42:12;8.70;99.90
33673;DHT22;20011;51.510;9.942;2024-01-25T09:44:40;8.70;99.90
33673;DHT22;20011;51.510;9.942;2024-01-25T09:47:08;8.80;99.90
33673;DHT22;20011;51.510;9.942;2024-01-25T09:49:37;8.70;99.90
33673;DHT22;20011;51.510;9.942;2024-01-25T09:52:05;8.80;99.90
33673;DHT22;20011;51.510;9.942;2024-01-25T09:54:35;8.80;99.90
33673;DHT22;20011;51.510;9.942;2024-01-25T09:57:15;8.90;99.90
33673;DHT22;20011;51.510;9.942;2024-01-25T09:59:45;8.80;99.90
33673;DHT22;20011;51.510;9.942;2024-01-25T10:05:19;8.80;99.90
33673;DHT22;20011;51.510;9.942;2024-01-25T10:07:46;8.80;99.90
33673;DHT22;20011;51.510;9.942;2024-01-25T10:10:14;8.90;99.90
33673;DHT22;20011;51.510;9.942;2024-01-25T10:12:42;9.00;99.90
33673;DHT22;20011;51.510;9.942;2024-01-25T10:15:10;9.00;99.90
33673;DHT22;20011;51.510;9.942;2024-01-25T10:17:39;9.00;99.90
33673;DHT22;20011;51.510;9.942;2024-01-25T10:20:26;9.00;99.90
33673;DHT22;20011;51.510;9.942;2024-01-25T10:22:58;9.00;99.90
33673;DHT22;20011;51.510;9.942;2024-01-25T10:25:27;9.00;99.90
33673;DHT22;20011;51.510;9.942;2024-01-25T10:27:55;9.10;99.90
33673;DHT22;20011;51.510;9.942;2024-01-25T10:30:23;9.10;99.90
33673;DHT22;20011;51.510;9.942;2024-01-25T10:32:51;9.10;99.90
33673;DHT22;20011;51.510;9.942;2024-01-25T10:35:20;9.10;99.90
33673;DHT22;20011;51.510;9.942;2024-01-25T10:37:51;9.20;99.90
33673;DHT22;20011;51.510;9.942;2024-01-25T10:40:19;9.20;99.90
33673;DHT22;20011;51.510;9.942;2024-01-25T10:42:47;9.20;99.90
33673;DHT22;20011;51.510;9.942;2024-01-25T10:45:15;9.20;99.90
33673;DHT22;20011;51.510;9.942;2024-01-25T10:47:42;9.20;99.90
33673;DHT22;20011;51.510;9.942;2024-01-25T10:50:12;9.20;99.90
33673;DHT22;20011;51.510;9.942;2024-01-25T10:52:41;9.20;99.90
33673;DHT22;20011;51.510;9.942;2024-01-25T10:55:11;9.20;99.90
33673;DHT22;20011;51.510;9.942;2024-01-25T10:57:42;9.20;99.90
33673;DHT22;20011;51.510;9.942;2024-01-25T11:00:11;9.40;99.90
33673;DHT22;20011;51.510;9.942;2024-01-25T11:02:39;9.40;99.90
33673;DHT22;20011;51.510;9.942;2024-01-25T11:05:13;9.40;99.90
33673;DHT22;20011;51.510;9.942;2024-01-25T11:07:48;9.40;99.90
33673;DHT22;20011;51.510;9.942;2024-01-25T11:10:21;9.30;99.90
33673;DHT22;20011;51.510;9.942;2024-01-25T11:12:59;9.30;99.90
33673;DHT22;20011;51.510;9.942;2024-01-25T11:17:58;9.30;99.90
33673;DHT22;20011;51.510;9.942;2024-01-25T11:20:28;9.30;99.90
33673;DHT22;20011;51.510;9.942;2024-01-25T11:23:01;9.30;99.90
33673;DHT22;20011;51.510;9.942;2024-01-25T11:25:29;9.30;99.90
33673;DHT22;20011;51.510;9.942;2024-01-25T11:27:58;9.30;99.90
33673;DHT22;20011;51.510;9.942;2024-01-25T11:30:33;9.30;99.90
33673;DHT22;20011;51.510;9.942;2024-01-25T11:33:03;9.30;99.90
33673;DHT22;20011;51.510;9.942;2024-01-25T11:35:31;9.30;99.90
33673;DHT22;20011;51.510;9.942;2024-01-25T11:38:00;9.40;99.90
33673;DHT22;20011;51.510;9.942;2024-01-25T11:40:28;9.40;99.90
33673;DHT22;20011;51.510;9.942;2024-01-25T11:42:58;9.30;99.90
33673;DHT22;20011;51.510;9.942;2024-01-25T11:45:25;9.30;99.90
33673;DHT22;20011;51.510;9.942;2024-01-25T11:47:52;9.40;99.90
33673;DHT22;20011;51.510;9.942;2024-01-25T11:50:19;9.30;99.90
33673;DHT22;20011;51.510;9.942;2024-01-25T11:52:48;9.40;99.90
33673;DHT22;20011;51.510;9.942;2024-01-25T11:55:17;9.40;99.90
33673;DHT22;20011;51.510;9.942;2024-01-25T11:57:44;9.30;99.90
33673;DHT22;20011;51.510;9.942;2024-01-25T12:00:15;9.40;99.90
33673;DHT22;20011;51.510;9.942;2024-01-25T12:02:43;9.30;99.90
33673;DHT22;20011;51.510;9.942;2024-01-25T12:05:10;9.40;99.90
33673;DHT22;20011;51.510;9.942;2024-01-25T12:07:39;9.30;99.90
33673;DHT22;20011;51.510;9.942;2024-01-25T12:10:09;9.30;99.90
33673;DHT22;20011;51.510;9.942;2024-01-25T12:12:37;9.40;99.90
33673;DHT22;20011;51.510;9.942;2024-01-25T12:15:07;9.40;99.90
33673;DHT22;20011;51.510;9.942;2024-01-25T12:17:35;9.40;99.90
33673;DHT22;20011;51.510;9.942;2024-01-25T12:20:10;9.40;99.90
33673;DHT22;20011;51.510;9.942;2024-01-25T12:22:39;9.40;99.90
33673;DHT22;20011;51.510;9.942;2024-01-25T12:25:07;9.40;99.90
33673;DHT22;20011;51.510;9.942;2024-01-25T12:27:36;9.40;99.90
33673;DHT22;20011;51.510;9.942;2024-01-25T12:30:04;9.40;99.90
33673;DHT22;20011;51.510;9.942;2024-01-25T12:32:31;9.40;99.90
33673;DHT22;20011;51.510;9.942;2024-01-25T12:35:00;9.40;99.90
33673;DHT22;20011;51.510;9.942;2024-01-25T12:37:36;9.40;99.90
33673;DHT22;20011;51.510;9.942;2024-01-25T12:40:04;9.50;99.90
33673;DHT22;20011;51.510;9.942;2024-01-25T12:42:31;9.40;99.90
33673;DHT22;20011;51.510;9.942;2024-01-25T12:44:58;9.50;99.90
33673;DHT22;20011;51.510;9.942;2024-01-25T12:47:25;9.50;99.90
33673;DHT22;20011;51.510;9.942;2024-01-25T12:49:52;9.50;99.90
33673;DHT22;20011;51.510;9.942;2024-01-25T12:52:20;9.50;99.90
33673;DHT22;20011;51.510;9.942;2024-01-25T12:54:47;9.50;99.90
33673;DHT22;20011;51.510;9.942;2024-01-25T12:57:14;9.60;99.90
33673;DHT22;20011;51.510;9.942;2024-01-25T12:59:41;9.60;99.90
33673;DHT22;20011;51.510;9.942;2024-01-25T13:02:08;9.60;99.90
33673;DHT22;20011;51.510;9.942;2024-01-25T13:04:36;9.70;99.90
33673;DHT22;20011;51.510;9.942;2024-01-25T13:07:04;9.70;99.90
33673;DHT22;20011;51.510;9.942;2024-01-25T13:09:31;9.70;99.90
33673;DHT22;20011;51.510;9.942;2024-01-25T13:12:00;9.70;99.90
33673;DHT22;20011;51.510;9.942;2024-01-25T13:14:28;9.70;99.90
33673;DHT22;20011;51.510;9.942;2024-01-25T13:16:54;9.80;99.90
33673;DHT22;20011;51.510;9.942;2024-01-25T13:19:21;9.70;99.90
33673;DHT22;20011;51.510;9.942;2024-01-25T13:21:50;9.80;99.90
33673;DHT22;20011;51.510;9.942;2024-01-25T13:24:19;9.80;99.90
33673;DHT22;20011;51.510;9.942;2024-01-25T13:26:46;9.80;99.90
33673;DHT22;20011;51.510;9.942;2024-01-25T13:29:12;9.90;99.90
33673;DHT22;20011;51.510;9.942;2024-01-25T13:31:40;9.90;99.90
33673;DHT22;20011;51.510;9.942;2024-01-25T13:34:07;9.90;99.90
33673;DHT22;20011;51.510;9.942;2024-01-25T13:36:35;9.90;99.90
33673;DHT22;20011;51.510;9.942;2024-01-25T13:39:02;9.90;99.90
33673;DHT22;20011;51.510;9.942;2024-01-25T13:41:30;9.90;99.90
33673;DHT22;20011;51.510;9.942;2024-01-25T13:43:57;9.90;99.90
33673;DHT22;20011;51.510;9.942;2024-01-25T13:46:24;9.80;99.90
33673;DHT22;20011;51.510;9.942;2024-01-25T13:48:52;9.90;99.90
33673;DHT22;20011;51.510;9.942;2024-01-25T13:51:19;9.90;99.90
33673;DHT22;20011;51.510;9.942;2024-01-25T13:53:46;9.90;99.90
33673;DHT22;20011;51.510;9.942;2024-01-25T13:56:15;9.90;99.90
33673;DHT22;20011;51.510;9.942;2024-01-25T13:58:43;9.80;99.90
33673;DHT22;20011;51.510;9.942;2024-01-25T14:01:10;9.90;99.90
33673;DHT22;20011;51.510;9.942;2024-01-25T14:03:38;9.80;99.90
33673;DHT22;20011;51.510;9.942;2024-01-25T14:06:10;9.80;99.90
33673;DHT22;20011;51.510;9.942;2024-01-25T14:08:38;9.70;99.90
33673;DHT22;20011;51.510;9.942;2024-01-25T14:11:05;9.70;99.90
33673;DHT22;20011;51.510;9.942;2024-01-25T14:13:33;9.60;99.90
33673;DHT22;20011;51.510;9.942;2024-01-25T14:16:00;9.70;99.90
33673;DHT22;20011;51.510;9.942;2024-01-25T14:18:27;9.60;99.90
33673;DHT22;20011;51.510;9.942;2024-01-25T14:20:57;9.50;99.90
33673;DHT22;20011;51.510;9.942;2024-01-25T14:23:55;9.50;99.90
33673;DHT22;20011;51.510;9.942;2024-01-25T14:26:22;9.60;99.90
33673;DHT22;20011;51.510;9.942;2024-01-25T14:28:49;9.50;99.90
33673;DHT22;20011;51.510;9.942;2024-01-25T14:31:18;9.50;99.90
33673;DHT22;20011;51.510;9.942;2024-01-25T14:33:45;9.50;99.90
33673;DHT22;20011;51.510;9.942;2024-01-25T14:40:36;9.40;99.90
33673;DHT22;20011;51.510;9.942;2024-01-25T14:46:41;9.40;99.90
33673;DHT22;20011;51.510;9.942;2024-01-25T14:49:08;9.30;99.90
33673;DHT22;20011;51.510;9.942;2024-01-25T14:51:35;9.30;99.90
33673;DHT22;20011;51.510;9.942;2024-01-25T14:54:02;9.30;99.90
33673;DHT22;20011;51.510;9.942;2024-01-25T14:56:29;9.30;99.90
33673;DHT22;20011;51.510;9.942;2024-01-25T14:58:57;9.20;99.90
33673;DHT22;20011;51.510;9.942;2024-01-25T15:01:24;9.20;99.90
33673;DHT22;20011;51.510;9.942;2024-01-25T15:03:56;9.20;99.90
33673;DHT22;20011;51.510;9.942;2024-01-25T15:06:24;9.10;99.90
33673;DHT22;20011;51.510;9.942;2024-01-25T15:08:52;9.10;99.90
33673;DHT22;20011;51.510;9.942;2024-01-25T15:11:19;9.00;99.90
33673;DHT22;20011;51.510;9.942;2024-01-25T15:13:46;9.00;99.90
33673;DHT22;20011;51.510;9.942;2024-01-25T15:16:15;9.10;99.90
33673;DHT22;20011;51.510;9.942;2024-01-25T15:18:47;9.00;99.90
33673;DHT22;20011;51.510;9.942;2024-01-25T15:21:14;8.90;99.90
33673;DHT22;20011;51.510;9.942;2024-01-25T15:23:41;8.90;99.90
33673;DHT22;20011;51.510;9.942;2024-01-25T15:26:09;8.80;99.90
33673;DHT22;20011;51.510;9.942;2024-01-25T15:28:36;8.80;99.90
33673;DHT22;20011;51.510;9.942;2024-01-25T15:31:03;8.80;99.90
33673;DHT22;20011;51.510;9.942;2024-01-25T15:33:30;8.80;99.90
33673;DHT22;20011;51.510;9.942;2024-01-25T15:35:58;8.80;99.90
33673;DHT22;20011;51.510;9.942;2024-01-25T15:38:25;8.80;99.90
33673;DHT22;20011;51.510;9.942;2024-01-25T15:40:52;8.60;99.90
33673;DHT22;20011;51.510;9.942;2024-01-25T15:43:20;8.50;99.90
33673;DHT22;20011;51.510;9.942;2024-01-25T15:45:47;8.50;99.90
33673;DHT22;20011;51.510;9.942;2024-01-25T15:48:14;8.40;99.90
33673;DHT22;20011;51.510;9.942;2024-01-25T15:50:41;8.50;99.90
33673;DHT22;20011;51.510;9.942;2024-01-25T15:53:08;8.30;99.90
33673;DHT22;20011;51.510;9.942;2024-01-25T15:55:37;8.30;99.90
33673;DHT22;20011;51.510;9.942;2024-01-25T15:58:04;8.20;99.90
33673;DHT22;20011;51.510;9.942;2024-01-25T16:00:32;8.30;99.90
33673;DHT22;20011;51.510;9.942;2024-01-25T16:02:59;8.30;99.90